sensor_id;sensor_type;location;lat;lon;timestamp;temperature;humidity
16523;DHT22;19889;52.546;13.348;2022-12-16T00:00:36;-2.00;99.90
16523;DHT22;19889;52.546;13.348;2022-12-16T00:03:04;-2.00;99.90
16523;DHT22;19889;52.546;13.348;2022-12-16T00:05:31;-2.00;99.90
16523;DHT22;19889;52.546;13.348;2022-12-16T00:08:02;-2.10;99.90
16523;DHT22;19889;52.546;13.348;2022-12-16T00:10:29;-2.00;99.90
16523;DHT22;19889;52.546;13.348;2022-12-16T00:13:16;-2.00;99.90
16523;DHT22;19889;52.546;13.348;2022-12-16T00:15:43;-2.10;99.90
16523;DHT22;19889;52.546;13.348;2022-12-16T00:18:12;-2.00;99.90
16523;DHT22;19889;52.546;13.348;2022-12-16T00:20:43;-2.10;99.90
16523;DHT22;19889;52.546;13.348;2022-12-16T00:23:10;-1.90;99.90
16523;DHT22;19889;52.546;13.348;2022-12-16T00:25:37;-2.10;99.90
16523;DHT22;19889;52.546;13.348;2022-12-16T00:28:04;-2.10;99.90
16523;DHT22;19889;52.546;13.348;2022-12-16T00:30:31;-2.20;99.90
16523;DHT22;19889;52.546;13.348;2022-12-16T00:32:58;-2.10;99.90
16523;DHT22;19889;52.546;13.348;2022-12-16T00:35:26;-2.10;99.90
16523;DHT22;19889;52.546;13.348;2022-12-16T00:37:55;-2.10;99.90
16523;DHT22;19889;52.546;13.348;2022-12-16T00:40:22;-2.10;99.90
16523;DHT22;19889;52.546;13.348;2022-12-16T00:42:49;-2.10;99.90
16523;DHT22;19889;52.546;13.348;2022-12-16T00:45:16;-2.10;99.90
16523;DHT22;19889;52.546;13.348;2022-12-16T00:47:43;-2.10;99.90
16523;DHT22;19889;52.546;13.348;2022-12-16T00:50:10;-2.10;99.90
16523;DHT22;19889;52.546;13.348;2022-12-16T00:52:38;-2.10;99.90
16523;DHT22;19889;52.546;13.348;2022-12-16T00:55:06;-2.10;99.90
16523;DHT22;19889;52.546;13.348;2022-12-16T00:57:33;-2.00;99.90
16523;DHT22;19889;52.546;13.348;2022-12-16T01:00:00;-2.00;99.90
16523;DHT22;19889;52.546;13.348;2022-12-16T01:02:29;-1.90;99.90
16523;DHT22;19889;52.546;13.348;2022-12-16T01:04:56;-1.90;99.90
16523;DHT22;19889;52.546;13.348;2022-12-16T01:07:23;-1.90;99.90
16523;DHT22;19889;52.546;13.348;2022-12-16T01:09:51;-2.00;99.90
16523;DHT22;19889;52.546;13.348;2022-12-16T01:12:18;-1.90;99.90
16523;DHT22;19889;52.546;13.348;2022-12-16T01:14:45;-0.40;99.90
16523;DHT22;19889;52.546;13.348;2022-12-16T01:17:12;-1.80;99.90
16523;DHT22;19889;52.546;13.348;2022-12-16T01:19:38;-1.80;99.90
16523;DHT22;19889;52.546;13.348;2022-12-16T01:22:05;-1.80;99.90
16523;DHT22;19889;52.546;13.348;2022-12-16T01:24:32;-1.80;99.90
16523;DHT22;19889;52.546;13.348;2022-12-16T01:27:01;-1.80;99.90
16523;DHT22;19889;52.546;13.348;2022-12-16T01:29:28;-1.80;99.90
16523;DHT22;19889;52.546;13.348;2022-12-16T01:31:55;-1.80;99.90
16523;DHT22;19889;52.546;13.348;2022-12-16T01:34:22;-1.80;99.90
16523;DHT22;19889;52.546;13.348;2022-12-16T01:36:49;-1.80;99.90
16523;DHT22;19889;52.546;13.348;2022-12-16T01:39:16;-1.80;99.90
16523;DHT22;19889;52.546;13.348;2022-12-16T01:41:43;-1.80;99.90
16523;DHT22;19889;52.546;13.348;2022-12-16T01:44:16;-1.90;99.90
16523;DHT22;19889;52.546;13.348;2022-12-16T01:46:47;-1.90;99.90
16523;DHT22;19889;52.546;13.348;2022-12-16T01:49:20;-1.90;99.90
16523;DHT22;19889;52.546;13.348;2022-12-16T01:51:48;-1.90;99.90
16523;DHT22;19889;52.546;13.348;2022-12-16T01:54:18;-1.90;99.90
16523;DHT22;19889;52.546;13.348;2022-12-16T01:56:50;-1.90;99.90
16523;DHT22;19889;52.546;13.348;2022-12-16T01:59:21;-2.00;99.90
16523;DHT22;19889;52.546;13.348;2022-12-16T02:01:50;-2.20;99.90
16523;DHT22;19889;52.546;13.348;2022-12-16T02:04:17;-2.00;99.90
16523;DHT22;19889;52.546;13.348;2022-12-16T02:06:44;-2.10;99.90
16523;DHT22;19889;52.546;13.348;2022-12-16T02:09:13;-2.10;99.90
16523;DHT22;19889;52.546;13.348;2022-12-16T02:11:59;-2.00;99.90
16523;DHT22;19889;52.546;13.348;2022-12-16T02:14:45;-2.10;99.90
16523;DHT22;19889;52.546;13.348;2022-12-16T02:17:19;-2.10;99.90
16523;DHT22;19889;52.546;13.348;2022-12-16T02:20:08;-2.00;99.90
16523;DHT22;19889;52.546;13.348;2022-12-16T02:22:48;-2.00;99.90
16523;DHT22;19889;52.546;13.348;2022-12-16T02:25:40;-2.00;99.90
16523;DHT22;19889;52.546;13.348;2022-12-16T02:28:23;-2.00;99.90
16523;DHT22;19889;52.546;13.348;2022-12-16T02:31:06;-2.10;99.90
16523;DHT22;19889;52.546;13.348;2022-12-16T02:33:45;-2.10;99.90
16523;DHT22;19889;52.546;13.348;2022-12-16T02:36:23;-2.10;99.90
16523;DHT22;19889;52.546;13.348;2022-12-16T02:38:57;-2.10;99.90
16523;DHT22;19889;52.546;13.348;2022-12-16T02:41:29;-2.20;99.90
16523;DHT22;19889;52.546;13.348;2022-12-16T02:44:02;-2.10;99.90
16523;DHT22;19889;52.546;13.348;2022-12-16T02:46:31;-2.20;99.90
16523;DHT22;19889;52.546;13.348;2022-12-16T02:49:04;-2.40;99.90
16523;DHT22;19889;52.546;13.348;2022-12-16T02:51:33;-2.20;99.90
16523;DHT22;19889;52.546;13.348;2022-12-16T02:54:03;-2.30;99.90
16523;DHT22;19889;52.546;13.348;2022-12-16T02:56:40;-2.20;99.90
16523;DHT22;19889;52.546;13.348;2022-12-16T02:59:17;-2.30;99.90
16523;DHT22;19889;52.546;13.348;2022-12-16T03:01:53;-2.20;99.90
16523;DHT22;19889;52.546;13.348;2022-12-16T03:04:25;-2.30;99.90
16523;DHT22;19889;52.546;13.348;2022-12-16T03:06:53;-2.40;99.90
16523;DHT22;19889;52.546;13.348;2022-12-16T03:09:25;-2.40;99.90
16523;DHT22;19889;52.546;13.348;2022-12-16T03:11:54;-2.40;99.90
16523;DHT22;19889;52.546;13.348;2022-12-16T03:14:27;-1.90;99.90
16523;DHT22;19889;52.546;13.348;2022-12-16T03:16:57;-2.40;99.90
16523;DHT22;19889;52.546;13.348;2022-12-16T03:19:25;-2.40;99.90
16523;DHT22;19889;52.546;13.348;2022-12-16T03:21:56;-2.40;99.90
16523;DHT22;19889;52.546;13.348;2022-12-16T03:24:26;-2.40;99.90
16523;DHT22;19889;52.546;13.348;2022-12-16T03:26:57;-2.40;99.90
16523;DHT22;19889;52.546;13.348;2022-12-16T03:29:31;-2.40;99.90
16523;DHT22;19889;52.546;13.348;2022-12-16T03:32:04;-2.30;99.90
16523;DHT22;19889;52.546;13.348;2022-12-16T03:34:35;-2.40;99.90
16523;DHT22;19889;52.546;13.348;2022-12-16T03:37:04;-2.40;99.90
16523;DHT22;19889;52.546;13.348;2022-12-16T03:39:33;-2.40;99.90
16523;DHT22;19889;52.546;13.348;2022-12-16T03:42:01;-2.20;99.90
16523;DHT22;19889;52.546;13.348;2022-12-16T03:44:29;-2.30;99.90
16523;DHT22;19889;52.546;13.348;2022-12-16T03:46:57;-2.30;99.90
16523;DHT22;19889;52.546;13.348;2022-12-16T03:49:25;-2.30;99.90
16523;DHT22;19889;52.546;13.348;2022-12-16T03:51:53;-2.30;99.90
16523;DHT22;19889;52.546;13.348;2022-12-16T03:54:20;-2.30;99.90
16523;DHT22;19889;52.546;13.348;2022-12-16T03:56:48;-2.30;99.90
16523;DHT22;19889;52.546;13.348;2022-12-16T03:59:15;-2.30;99.90
16523;DHT22;19889;52.546;13.348;2022-12-16T04:01:42;-2.30;99.90
16523;DHT22;19889;52.546;13.348;2022-12-16T04:04:09;-2.40;99.90
16523;DHT22;19889;52.546;13.348;2022-12-16T04:06:37;-2.40;99.90
16523;DHT22;19889;52.546;13.348;2022-12-16T04:09:04;-2.40;99.90
16523;DHT22;19889;52.546;13.348;2022-12-16T04:11:31;-2.50;99.90
16523;DHT22;19889;52.546;13.348;2022-12-16T04:14:15;-2.60;99.90
16523;DHT22;19889;52.546;13.348;2022-12-16T04:17:00;-2.60;99.90
16523;DHT22;19889;52.546;13.348;2022-12-16T04:19:45;-2.60;99.90
16523;DHT22;19889;52.546;13.348;2022-12-16T04:22:33;-2.70;99.90
16523;DHT22;19889;52.546;13.348;2022-12-16T04:25:20;-2.70;99.90
16523;DHT22;19889;52.546;13.348;2022-12-16T04:27:48;-2.70;99.90
16523;DHT22;19889;52.546;13.348;2022-12-16T04:30:16;-2.80;99.90
16523;DHT22;19889;52.546;13.348;2022-12-16T04:32:49;-2.80;99.90
16523;DHT22;19889;52.546;13.348;2022-12-16T04:35:35;-2.80;99.90
16523;DHT22;19889;52.546;13.348;2022-12-16T04:38:20;-2.80;99.90
16523;DHT22;19889;52.546;13.348;2022-12-16T04:41:05;-2.80;99.90
16523;DHT22;19889;52.546;13.348;2022-12-16T04:43:49;-2.80;99.90
16523;DHT22;19889;52.546;13.348;2022-12-16T04:46:34;-2.90;99.90
16523;DHT22;19889;52.546;13.348;2022-12-16T04:49:18;-2.80;99.90
16523;DHT22;19889;52.546;13.348;2022-12-16T04:52:03;-2.90;99.90
16523;DHT22;19889;52.546;13.348;2022-12-16T04:54:49;-2.80;99.90
16523;DHT22;19889;52.546;13.348;2022-12-16T04:57:33;-2.80;99.90
16523;DHT22;19889;52.546;13.348;2022-12-16T05:00:18;-2.90;99.90
16523;DHT22;19889;52.546;13.348;2022-12-16T05:03:02;-2.80;99.90
16523;DHT22;19889;52.546;13.348;2022-12-16T05:05:47;-2.70;99.90
16523;DHT22;19889;52.546;13.348;2022-12-16T05:08:31;-2.80;99.90
16523;DHT22;19889;52.546;13.348;2022-12-16T05:11:17;-2.80;99.90
16523;DHT22;19889;52.546;13.348;2022-12-16T05:14:01;-2.70;99.90
16523;DHT22;19889;52.546;13.348;2022-12-16T05:16:45;-2.70;99.90
16523;DHT22;19889;52.546;13.348;2022-12-16T05:19:29;-2.70;99.90
16523;DHT22;19889;52.546;13.348;2022-12-16T05:22:14;-2.60;99.90
16523;DHT22;19889;52.546;13.348;2022-12-16T05:24:58;-2.60;99.90
16523;DHT22;19889;52.546;13.348;2022-12-16T05:27:47;-2.60;99.90
16523;DHT22;19889;52.546;13.348;2022-12-16T05:30:33;-2.60;99.90
16523;DHT22;19889;52.546;13.348;2022-12-16T05:33:17;-2.60;99.90
16523;DHT22;19889;52.546;13.348;2022-12-16T05:36:02;-2.50;99.90
16523;DHT22;19889;52.546;13.348;2022-12-16T05:38:46;-2.50;99.90
16523;DHT22;19889;52.546;13.348;2022-12-16T05:41:31;-2.60;99.90
16523;DHT22;19889;52.546;13.348;2022-12-16T05:44:16;-2.60;99.90
16523;DHT22;19889;52.546;13.348;2022-12-16T05:47:00;-2.50;99.90
16523;DHT22;19889;52.546;13.348;2022-12-16T05:49:44;-2.60;99.90
16523;DHT22;19889;52.546;13.348;2022-12-16T05:52:29;-2.60;99.90
16523;DHT22;19889;52.546;13.348;2022-12-16T05:55:13;-2.60;99.90
16523;DHT22;19889;52.546;13.348;2022-12-16T05:57:58;-2.60;99.90
16523;DHT22;19889;52.546;13.348;2022-12-16T06:00:43;-2.60;99.90
16523;DHT22;19889;52.546;13.348;2022-12-16T06:03:28;-2.60;99.90
16523;DHT22;19889;52.546;13.348;2022-12-16T06:06:12;-2.80;99.90
16523;DHT22;19889;52.546;13.348;2022-12-16T06:08:56;-2.70;99.90
16523;DHT22;19889;52.546;13.348;2022-12-16T06:11:41;-2.70;99.90
16523;DHT22;19889;52.546;13.348;2022-12-16T06:14:25;-2.70;99.90
16523;DHT22;19889;52.546;13.348;2022-12-16T06:17:11;-2.70;99.90
16523;DHT22;19889;52.546;13.348;2022-12-16T06:19:55;-2.60;99.90
16523;DHT22;19889;52.546;13.348;2022-12-16T06:22:39;-2.80;99.90
16523;DHT22;19889;52.546;13.348;2022-12-16T06:25:24;-2.80;99.90
16523;DHT22;19889;52.546;13.348;2022-12-16T06:28:08;-2.80;99.90
16523;DHT22;19889;52.546;13.348;2022-12-16T06:30:52;-2.60;99.90
16523;DHT22;19889;52.546;13.348;2022-12-16T06:33:38;-2.80;99.90
16523;DHT22;19889;52.546;13.348;2022-12-16T06:36:22;-2.80;99.90
16523;DHT22;19889;52.546;13.348;2022-12-16T06:39:07;-2.80;99.90
16523;DHT22;19889;52.546;13.348;2022-12-16T06:41:51;-2.80;99.90
16523;DHT22;19889;52.546;13.348;2022-12-16T06:44:35;-2.80;99.90
16523;DHT22;19889;52.546;13.348;2022-12-16T06:47:28;-2.80;99.90
16523;DHT22;19889;52.546;13.348;2022-12-16T06:50:14;-2.80;99.90
16523;DHT22;19889;52.546;13.348;2022-12-16T06:52:58;-2.80;99.90
16523;DHT22;19889;52.546;13.348;2022-12-16T06:55:43;-2.80;99.90
16523;DHT22;19889;52.546;13.348;2022-12-16T06:58:27;-2.80;99.90
16523;DHT22;19889;52.546;13.348;2022-12-16T07:01:11;-2.90;99.90
16523;DHT22;19889;52.546;13.348;2022-12-16T07:03:55;-2.90;99.90
16523;DHT22;19889;52.546;13.348;2022-12-16T07:06:41;-2.90;99.90
16523;DHT22;19889;52.546;13.348;2022-12-16T07:09:26;-2.90;99.90
16523;DHT22;19889;52.546;13.348;2022-12-16T07:12:10;-3.00;99.90
16523;DHT22;19889;52.546;13.348;2022-12-16T07:14:54;-3.00;99.90
16523;DHT22;19889;52.546;13.348;2022-12-16T07:17:39;-2.30;99.90
16523;DHT22;19889;52.546;13.348;2022-12-16T07:20:23;-3.00;99.90
16523;DHT22;19889;52.546;13.348;2022-12-16T07:23:09;-3.00;99.90
16523;DHT22;19889;52.546;13.348;2022-12-16T07:26:02;-3.00;99.90
16523;DHT22;19889;52.546;13.348;2022-12-16T07:28:47;-3.10;99.90
16523;DHT22;19889;52.546;13.348;2022-12-16T07:31:31;-3.00;99.90
16523;DHT22;19889;52.546;13.348;2022-12-16T07:34:15;-3.10;99.90
16523;DHT22;19889;52.546;13.348;2022-12-16T07:36:59;-2.90;99.90
16523;DHT22;19889;52.546;13.348;2022-12-16T07:39:46;-3.00;99.90
16523;DHT22;19889;52.546;13.348;2022-12-16T07:42:30;-3.10;99.90
16523;DHT22;19889;52.546;13.348;2022-12-16T07:45:15;-3.10;99.90
16523;DHT22;19889;52.546;13.348;2022-12-16T07:47:59;-3.00;99.90
16523;DHT22;19889;52.546;13.348;2022-12-16T07:50:44;-3.10;99.90
16523;DHT22;19889;52.546;13.348;2022-12-16T07:53:28;-3.00;99.90
16523;DHT22;19889;52.546;13.348;2022-12-16T07:56:22;-3.00;99.90
16523;DHT22;19889;52.546;13.348;2022-12-16T07:59:07;-2.80;99.90
16523;DHT22;19889;52.546;13.348;2022-12-16T08:01:51;-2.80;99.90
16523;DHT22;19889;52.546;13.348;2022-12-16T08:04:35;-3.00;99.90
16523;DHT22;19889;52.546;13.348;2022-12-16T08:07:20;-3.00;99.90
16523;DHT22;19889;52.546;13.348;2022-12-16T08:10:05;-3.10;99.90
16523;DHT22;19889;52.546;13.348;2022-12-16T08:12:52;-3.00;99.90
16523;DHT22;19889;52.546;13.348;2022-12-16T08:15:42;-3.00;99.90
16523;DHT22;19889;52.546;13.348;2022-12-16T08:18:26;-3.00;99.90
16523;DHT22;19889;52.546;13.348;2022-12-16T08:21:10;-3.00;99.90
16523;DHT22;19889;52.546;13.348;2022-12-16T08:23:55;-3.00;99.90
16523;DHT22;19889;52.546;13.348;2022-12-16T08:26:39;-3.00;99.90
16523;DHT22;19889;52.546;13.348;2022-12-16T08:29:25;-3.00;99.90
16523;DHT22;19889;52.546;13.348;2022-12-16T08:32:10;-3.00;99.90
16523;DHT22;19889;52.546;13.348;2022-12-16T08:34:54;-3.00;99.90
16523;DHT22;19889;52.546;13.348;2022-12-16T08:37:38;-2.70;99.90
16523;DHT22;19889;52.546;13.348;2022-12-16T08:40:23;-2.90;99.90
16523;DHT22;19889;52.546;13.348;2022-12-16T08:43:13;-2.80;99.90
16523;DHT22;19889;52.546;13.348;2022-12-16T08:45:59;-2.80;99.90
16523;DHT22;19889;52.546;13.348;2022-12-16T08:48:43;-2.70;99.90
16523;DHT22;19889;52.546;13.348;2022-12-16T08:51:28;-2.70;99.90
16523;DHT22;19889;52.546;13.348;2022-12-16T08:54:12;-2.60;99.90
16523;DHT22;19889;52.546;13.348;2022-12-16T08:56:57;-2.60;99.90
16523;DHT22;19889;52.546;13.348;2022-12-16T08:59:41;-2.60;99.90
16523;DHT22;19889;52.546;13.348;2022-12-16T09:02:27;-2.60;99.90
16523;DHT22;19889;52.546;13.348;2022-12-16T09:05:12;-2.60;99.90
16523;DHT22;19889;52.546;13.348;2022-12-16T09:07:58;-2.50;99.90
16523;DHT22;19889;52.546;13.348;2022-12-16T09:10:42;-2.30;99.90
16523;DHT22;19889;52.546;13.348;2022-12-16T09:13:27;-2.20;99.90
16523;DHT22;19889;52.546;13.348;2022-12-16T09:16:11;-2.50;99.90
16523;DHT22;19889;52.546;13.348;2022-12-16T09:18:57;-2.50;99.90
16523;DHT22;19889;52.546;13.348;2022-12-16T09:21:42;-2.50;99.90
16523;DHT22;19889;52.546;13.348;2022-12-16T09:24:26;-2.50;99.90
16523;DHT22;19889;52.546;13.348;2022-12-16T09:27:10;-2.50;99.90
16523;DHT22;19889;52.546;13.348;2022-12-16T09:29:55;-2.50;99.90
16523;DHT22;19889;52.546;13.348;2022-12-16T09:32:40;-2.40;99.90
16523;DHT22;19889;52.546;13.348;2022-12-16T09:35:27;-2.40;99.90
16523;DHT22;19889;52.546;13.348;2022-12-16T09:38:11;-2.40;99.90
16523;DHT22;19889;52.546;13.348;2022-12-16T09:40:56;-2.40;99.90
16523;DHT22;19889;52.546;13.348;2022-12-16T09:43:50;-2.40;99.90
16523;DHT22;19889;52.546;13.348;2022-12-16T09:46:48;-2.30;99.90
16523;DHT22;19889;52.546;13.348;2022-12-16T09:49:42;-2.20;99.90
16523;DHT22;19889;52.546;13.348;2022-12-16T09:52:32;-2.20;99.90
16523;DHT22;19889;52.546;13.348;2022-12-16T09:55:22;-2.10;99.90
16523;DHT22;19889;52.546;13.348;2022-12-16T09:58:10;-2.10;99.90
16523;DHT22;19889;52.546;13.348;2022-12-16T10:00:56;-2.00;99.90
16523;DHT22;19889;52.546;13.348;2022-12-16T10:03:52;-2.00;99.90
16523;DHT22;19889;52.546;13.348;2022-12-16T10:06:41;-2.00;99.90
16523;DHT22;19889;52.546;13.348;2022-12-16T10:09:32;-1.90;99.90
16523;DHT22;19889;52.546;13.348;2022-12-16T10:12:25;-1.80;99.90
16523;DHT22;19889;52.546;13.348;2022-12-16T10:15:20;-1.80;99.90
16523;DHT22;19889;52.546;13.348;2022-12-16T10:18:19;-1.80;99.90
16523;DHT22;19889;52.546;13.348;2022-12-16T10:21:09;-1.80;99.90
16523;DHT22;19889;52.546;13.348;2022-12-16T10:24:03;-1.70;99.90
16523;DHT22;19889;52.546;13.348;2022-12-16T10:26:58;-1.80;99.90
16523;DHT22;19889;52.546;13.348;2022-12-16T10:29:45;-1.70;99.90
16523;DHT22;19889;52.546;13.348;2022-12-16T10:32:33;-1.70;99.90
16523;DHT22;19889;52.546;13.348;2022-12-16T10:35:21;-1.70;99.90
16523;DHT22;19889;52.546;13.348;2022-12-16T10:38:14;-1.10;99.90
16523;DHT22;19889;52.546;13.348;2022-12-16T10:40:59;-1.70;99.90
16523;DHT22;19889;52.546;13.348;2022-12-16T10:43:46;-1.60;99.90
16523;DHT22;19889;52.546;13.348;2022-12-16T10:46:33;-1.60;99.90
16523;DHT22;19889;52.546;13.348;2022-12-16T10:49:19;-1.60;99.90
16523;DHT22;19889;52.546;13.348;2022-12-16T10:52:05;-1.60;99.90
16523;DHT22;19889;52.546;13.348;2022-12-16T10:54:56;-1.60;99.90
16523;DHT22;19889;52.546;13.348;2022-12-16T10:57:54;-1.50;99.90
16523;DHT22;19889;52.546;13.348;2022-12-16T11:00:43;-1.50;99.90
16523;DHT22;19889;52.546;13.348;2022-12-16T11:03:29;-1.50;99.90
16523;DHT22;19889;52.546;13.348;2022-12-16T11:06:18;-1.50;99.90
16523;DHT22;19889;52.546;13.348;2022-12-16T11:09:21;-1.50;99.90
16523;DHT22;19889;52.546;13.348;2022-12-16T11:12:21;-1.30;99.90
16523;DHT22;19889;52.546;13.348;2022-12-16T11:15:21;-1.40;99.90
16523;DHT22;19889;52.546;13.348;2022-12-16T11:18:12;-1.40;99.90
16523;DHT22;19889;52.546;13.348;2022-12-16T11:21:08;-1.40;99.90
16523;DHT22;19889;52.546;13.348;2022-12-16T11:24:06;-1.30;99.90
16523;DHT22;19889;52.546;13.348;2022-12-16T11:26:55;-1.30;99.90
16523;DHT22;19889;52.546;13.348;2022-12-16T11:29:54;-1.30;99.90
16523;DHT22;19889;52.546;13.348;2022-12-16T11:32:42;-1.20;99.90
16523;DHT22;19889;52.546;13.348;2022-12-16T11:35:32;-1.20;99.90
16523;DHT22;19889;52.546;13.348;2022-12-16T11:38:26;-1.20;99.90
16523;DHT22;19889;52.546;13.348;2022-12-16T11:41:21;-1.10;99.90
16523;DHT22;19889;52.546;13.348;2022-12-16T11:44:12;-1.10;99.90
16523;DHT22;19889;52.546;13.348;2022-12-16T11:46:59;-1.00;99.90
16523;DHT22;19889;52.546;13.348;2022-12-16T11:49:44;-1.00;99.90
16523;DHT22;19889;52.546;13.348;2022-12-16T11:52:30;-1.00;99.90
16523;DHT22;19889;52.546;13.348;2022-12-16T11:55:18;-1.00;99.90
16523;DHT22;19889;52.546;13.348;2022-12-16T11:58:14;-0.90;99.90
16523;DHT22;19889;52.546;13.348;2022-12-16T12:01:03;-0.90;99.90
16523;DHT22;19889;52.546;13.348;2022-12-16T12:03:51;-0.90;99.90
16523;DHT22;19889;52.546;13.348;2022-12-16T12:06:54;-0.90;99.90
16523;DHT22;19889;52.546;13.348;2022-12-16T12:09:46;-0.80;99.90
16523;DHT22;19889;52.546;13.348;2022-12-16T12:12:39;-0.80;99.90
16523;DHT22;19889;52.546;13.348;2022-12-16T12:15:28;-0.80;99.90
16523;DHT22;19889;52.546;13.348;2022-12-16T12:18:19;-0.80;99.90
16523;DHT22;19889;52.546;13.348;2022-12-16T12:21:14;-0.80;99.90
16523;DHT22;19889;52.546;13.348;2022-12-16T12:24:07;-0.70;99.90
16523;DHT22;19889;52.546;13.348;2022-12-16T12:27:01;-0.70;99.90
16523;DHT22;19889;52.546;13.348;2022-12-16T12:29:57;-0.70;99.90
16523;DHT22;19889;52.546;13.348;2022-12-16T12:32:59;-0.70;99.90
16523;DHT22;19889;52.546;13.348;2022-12-16T12:35:55;-0.70;99.90
16523;DHT22;19889;52.546;13.348;2022-12-16T12:38:49;-0.40;99.90
16523;DHT22;19889;52.546;13.348;2022-12-16T12:41:50;-0.60;99.90
16523;DHT22;19889;52.546;13.348;2022-12-16T12:44:52;-0.60;99.90
16523;DHT22;19889;52.546;13.348;2022-12-16T12:47:41;-0.60;99.90
16523;DHT22;19889;52.546;13.348;2022-12-16T12:50:32;-0.50;99.90
16523;DHT22;19889;52.546;13.348;2022-12-16T12:53:27;-0.60;99.90
16523;DHT22;19889;52.546;13.348;2022-12-16T12:56:18;-0.10;99.90
16523;DHT22;19889;52.546;13.348;2022-12-16T12:59:10;-0.60;99.90
16523;DHT22;19889;52.546;13.348;2022-12-16T13:02:00;-0.20;99.90
16523;DHT22;19889;52.546;13.348;2022-12-16T13:04:48;-0.50;99.90
16523;DHT22;19889;52.546;13.348;2022-12-16T13:07:33;-0.50;99.90
16523;DHT22;19889;52.546;13.348;2022-12-16T13:10:36;-0.50;99.90
16523;DHT22;19889;52.546;13.348;2022-12-16T13:13:32;-0.50;99.90
16523;DHT22;19889;52.546;13.348;2022-12-16T13:19:56;-0.50;99.90
16523;DHT22;19889;52.546;13.348;2022-12-16T13:22:42;0.10;99.90
16523;DHT22;19889;52.546;13.348;2022-12-16T13:25:49;-0.50;99.90
16523;DHT22;19889;52.546;13.348;2022-12-16T13:28:35;-0.50;99.90
16523;DHT22;19889;52.546;13.348;2022-12-16T13:31:20;-0.50;99.90
16523;DHT22;19889;52.546;13.348;2022-12-16T13:34:19;-0.50;99.90
16523;DHT22;19889;52.546;13.348;2022-12-16T13:37:14;-0.40;99.90
16523;DHT22;19889;52.546;13.348;2022-12-16T13:40:04;-0.40;99.90
16523;DHT22;19889;52.546;13.348;2022-12-16T13:42:52;-0.40;99.90
16523;DHT22;19889;52.546;13.348;2022-12-16T13:45:39;-0.30;99.90
16523;DHT22;19889;52.546;13.348;2022-12-16T13:48:30;-0.30;99.90
16523;DHT22;19889;52.546;13.348;2022-12-16T13:54:59;-0.30;99.90
16523;DHT22;19889;52.546;13.348;2022-12-16T13:57:56;-0.30;99.90
16523;DHT22;19889;52.546;13.348;2022-12-16T14:00:54;-0.40;99.90
16523;DHT22;19889;52.546;13.348;2022-12-16T14:03:43;-0.40;99.90
16523;DHT22;19889;52.546;13.348;2022-12-16T14:06:29;-0.40;99.90
16523;DHT22;19889;52.546;13.348;2022-12-16T14:09:23;-0.30;99.90
16523;DHT22;19889;52.546;13.348;2022-12-16T14:12:19;-0.50;99.90
16523;DHT22;19889;52.546;13.348;2022-12-16T14:15:10;-0.50;99.90
16523;DHT22;19889;52.546;13.348;2022-12-16T14:18:01;-0.40;99.90
16523;DHT22;19889;52.546;13.348;2022-12-16T14:20:54;-0.30;99.90
16523;DHT22;19889;52.546;13.348;2022-12-16T14:23:45;-0.40;99.90
16523;DHT22;19889;52.546;13.348;2022-12-16T14:26:34;-0.40;99.90
16523;DHT22;19889;52.546;13.348;2022-12-16T14:29:22;-0.40;99.90
16523;DHT22;19889;52.546;13.348;2022-12-16T14:32:19;-0.40;99.90
16523;DHT22;19889;52.546;13.348;2022-12-16T14:35:11;-0.40;99.90
16523;DHT22;19889;52.546;13.348;2022-12-16T14:38:21;-0.70;99.90
16523;DHT22;19889;52.546;13.348;2022-12-16T14:41:10;-0.50;99.90
16523;DHT22;19889;52.546;13.348;2022-12-16T14:43:54;-0.50;99.90
16523;DHT22;19889;52.546;13.348;2022-12-16T14:46:40;-0.50;99.90
16523;DHT22;19889;52.546;13.348;2022-12-16T14:49:27;-0.20;99.90
16523;DHT22;19889;52.546;13.348;2022-12-16T14:52:16;-0.60;99.90
16523;DHT22;19889;52.546;13.348;2022-12-16T14:55:10;-0.60;99.90
16523;DHT22;19889;52.546;13.348;2022-12-16T14:58:03;-0.60;99.90
16523;DHT22;19889;52.546;13.348;2022-12-16T15:00:48;-0.50;99.90
16523;DHT22;19889;52.546;13.348;2022-12-16T15:03:38;-0.50;99.90
16523;DHT22;19889;52.546;13.348;2022-12-16T15:06:26;-0.50;99.90
16523;DHT22;19889;52.546;13.348;2022-12-16T15:09:18;-0.50;99.90
16523;DHT22;19889;52.546;13.348;2022-12-16T15:12:05;-0.50;99.90
16523;DHT22;19889;52.546;13.348;2022-12-16T15:14:52;-0.50;99.90
16523;DHT22;19889;52.546;13.348;2022-12-16T15:17:43;-0.50;99.90
16523;DHT22;19889;52.546;13.348;2022-12-16T15:20:32;-0.60;99.90
16523;DHT22;19889;52.546;13.348;2022-12-16T15:23:21;-0.60;99.90
16523;DHT22;19889;52.546;13.348;2022-12-16T15:26:06;-0.50;99.90
16523;DHT22;19889;52.546;13.348;2022-12-16T15:28:51;-0.60;99.90
16523;DHT22;19889;52.546;13.348;2022-12-16T15:31:38;-0.60;99.90
16523;DHT22;19889;52.546;13.348;2022-12-16T15:34:28;-0.60;99.90
16523;DHT22;19889;52.546;13.348;2022-12-16T15:37:16;-0.60;99.90
16523;DHT22;19889;52.546;13.348;2022-12-16T15:40:01;-0.80;99.90
16523;DHT22;19889;52.546;13.348;2022-12-16T15:42:49;-0.50;99.90
16523;DHT22;19889;52.546;13.348;2022-12-16T15:45:35;-0.50;99.90
16523;DHT22;19889;52.546;13.348;2022-12-16T15:48:23;-0.50;99.90
16523;DHT22;19889;52.546;13.348;2022-12-16T15:51:20;-0.50;99.90
16523;DHT22;19889;52.546;13.348;2022-12-16T15:54:14;-0.50;99.90
16523;DHT22;19889;52.546;13.348;2022-12-16T15:56:59;-0.50;99.90
16523;DHT22;19889;52.546;13.348;2022-12-16T15:59:55;-0.50;99.90
16523;DHT22;19889;52.546;13.348;2022-12-16T16:02:45;-0.50;99.90
16523;DHT22;19889;52.546;13.348;2022-12-16T16:05:30;0.20;99.90
16523;DHT22;19889;52.546;13.348;2022-12-16T16:08:15;-0.50;99.90
16523;DHT22;19889;52.546;13.348;2022-12-16T16:11:00;-0.50;99.90
16523;DHT22;19889;52.546;13.348;2022-12-16T16:13:45;-0.50;99.90
16523;DHT22;19889;52.546;13.348;2022-12-16T16:16:29;0.70;99.90
16523;DHT22;19889;52.546;13.348;2022-12-16T16:19:18;-0.40;99.90
16523;DHT22;19889;52.546;13.348;2022-12-16T16:22:04;-0.40;99.90
16523;DHT22;19889;52.546;13.348;2022-12-16T16:24:48;-0.40;99.90
16523;DHT22;19889;52.546;13.348;2022-12-16T16:27:34;-0.40;99.90
16523;DHT22;19889;52.546;13.348;2022-12-16T16:30:19;-0.30;99.90
16523;DHT22;19889;52.546;13.348;2022-12-16T16:33:03;-0.30;99.90
16523;DHT22;19889;52.546;13.348;2022-12-16T16:35:48;-0.30;99.90
16523;DHT22;19889;52.546;13.348;2022-12-16T16:38:32;-0.40;99.90
16523;DHT22;19889;52.546;13.348;2022-12-16T16:41:16;-0.30;99.90
16523;DHT22;19889;52.546;13.348;2022-12-16T16:44:05;-0.40;99.90
16523;DHT22;19889;52.546;13.348;2022-12-16T16:46:50;-0.40;99.90
16523;DHT22;19889;52.546;13.348;2022-12-16T16:49:37;-0.40;99.90
16523;DHT22;19889;52.546;13.348;2022-12-16T16:52:24;-0.10;99.90
16523;DHT22;19889;52.546;13.348;2022-12-16T16:55:13;-0.40;99.90
16523;DHT22;19889;52.546;13.348;2022-12-16T16:57:58;-0.50;99.90
16523;DHT22;19889;52.546;13.348;2022-12-16T17:00:44;-0.30;99.90